Terminal Aerodrome Forecast
Issued by NWS Grand Junction, CO

Home | Current Version | Previous Version | Text Only | Print | Product List | Glossary On
Versions: 1 2 3 4 5 6 7 8 9 10 11 12 13
000
FTUS45 KGJT 172322
TAFGJT
TAF
KGJT 172322Z 1800/1824 31012KT P6SM FEW120 SCT250
     FM180300 04005KT P6SM FEW250
     FM180700 10006KT P6SM FEW250
     FM181500 13007KT P6SM FEW250
     FM181900 25004KT P6SM FEW250=

USA.gov is the U.S. government's official web portal to all federal, state and local government web resources and services.